Time;durP1;ratioP1;P1;durP2;ratioP2;P2;SDS_P1;SDS_P2;PMS_P1;PMS_P2;Temp;Humidity;BMP_temperature;BMP_pressure;BME280_temperature;BME280_humidity;BME280_pressure;Samples;Min_cycle;Max_cycle;Signal;HPM_P1;HPM_P2
2021/06/30 00:01:11;;;;;;;17.83;12.50;;;19.80;99.90;;;;;;5066329;28;20230;-62
2021/06/30 00:03:37;;;;;;;17.90;11.50;;;19.70;99.90;;;;;;5068916;28;20169;-62
2021/06/30 00:06:03;;;;;;;15.93;11.63;;;19.80;99.90;;;;;;5067610;28;20220;-62
2021/06/30 00:08:29;;;;;;;18.30;12.60;;;19.70;99.90;;;;;;5053945;28;20310;-62
2021/06/30 00:10:54;;;;;;;14.90;11.43;;;19.80;99.90;;;;;;5088786;28;20651;-62
2021/06/30 00:13:21;;;;;;;17.53;12.23;;;19.80;99.90;;;;;;5087605;28;20191;-62
2021/06/30 00:15:47;;;;;;;16.60;12.40;;;19.70;99.90;;;;;;5089386;28;20545;-62
2021/06/30 00:18:13;;;;;;;20.23;11.73;;;19.70;99.90;;;;;;5088622;28;20204;-62
2021/06/30 00:20:38;;;;;;;17.40;11.57;;;19.70;99.90;;;;;;5089379;28;20223;-62
2021/06/30 00:23:04;;;;;;;22.53;12.27;;;19.80;99.90;;;;;;5088535;28;20786;-62
2021/06/30 00:25:31;;;;;;;17.43;11.53;;;19.70;99.90;;;;;;5081200;28;20196;-62
2021/06/30 00:27:56;;;;;;;22.20;12.87;;;19.80;99.90;;;;;;5089375;28;20184;-62
2021/06/30 00:30:22;;;;;;;20.90;12.20;;;19.80;99.90;;;;;;5088447;28;20200;-63
2021/06/30 00:32:48;;;;;;;16.93;12.43;;;19.80;99.90;;;;;;5088910;28;20176;-62
2021/06/30 00:35:17;;;;;;;15.93;12.50;;;19.80;99.90;;;;;;5088719;28;20188;-63
2021/06/30 00:37:43;;;;;;;18.17;11.87;;;19.90;99.90;;;;;;5084547;28;20185;-62
2021/06/30 00:40:10;;;;;;;19.20;12.80;;;19.80;99.90;;;;;;5087190;28;20574;-62
2021/06/30 00:42:36;;;;;;;22.50;12.03;;;19.90;99.90;;;;;;5088896;28;20715;-63
2021/06/30 00:45:07;;;;;;;19.90;13.10;;;19.90;99.90;;;;;;5089272;28;20224;-62
2021/06/30 00:47:34;;;;;;;16.20;13.07;;;19.90;99.90;;;;;;5089221;28;20180;-63
2021/06/30 00:50:00;;;;;;;15.77;12.87;;;19.80;99.90;;;;;;5089049;28;20591;-62
2021/06/30 00:52:26;;;;;;;17.53;13.27;;;19.80;99.90;;;;;;5088084;28;20242;-63
2021/06/30 00:54:52;;;;;;;17.90;13.47;;;19.80;99.90;;;;;;5089018;28;20196;-62
2021/06/30 00:57:18;;;;;;;19.00;13.50;;;19.80;99.90;;;;;;5088137;28;20199;-63
2021/06/30 00:59:44;;;;;;;22.90;13.50;;;19.80;99.90;;;;;;5089109;28;20302;-62
2021/06/30 01:02:10;;;;;;;14.53;13.00;;;19.80;99.90;;;;;;5088884;28;20181;-63
2021/06/30 01:04:36;;;;;;;18.63;13.77;;;19.90;99.90;;;;;;5091279;28;20191;-63
2021/06/30 01:07:02;;;;;;;14.43;12.83;;;19.90;99.90;;;;;;5092861;28;20207;-63
2021/06/30 01:09:27;;;;;;;16.13;14.57;;;19.90;99.90;;;;;;5084714;28;20216;-63
2021/06/30 01:11:53;;;;;;;15.63;12.77;;;19.90;99.90;;;;;;5092416;28;20179;-63
2021/06/30 01:14:26;;;;;;;18.17;14.07;;;19.90;99.90;;;;;;5092738;28;20204;-62
2021/06/30 01:16:52;;;;;;;15.87;14.37;;;20.00;99.90;;;;;;5092748;28;20200;-62
2021/06/30 01:19:19;;;;;;;15.90;14.30;;;20.00;99.90;;;;;;5091679;28;20235;-63
2021/06/30 01:21:45;;;;;;;15.67;14.07;;;20.10;99.90;;;;;;5091945;28;20267;-63
2021/06/30 01:24:11;;;;;;;15.87;14.37;;;20.10;99.90;;;;;;5067617;28;20273;-62
2021/06/30 01:26:36;;;;;;;16.50;14.63;;;20.10;99.90;;;;;;5090653;28;20204;-62
2021/06/30 01:29:02;;;;;;;17.47;15.70;;;20.20;99.90;;;;;;5092374;28;20298;-63
2021/06/30 01:31:28;;;;;;;18.67;16.77;;;20.20;99.90;;;;;;5091259;28;20666;-63
2021/06/30 01:33:53;;;;;;;18.47;16.37;;;20.30;99.90;;;;;;5092116;28;20180;-62
2021/06/30 01:36:19;;;;;;;19.17;17.13;;;20.30;99.90;;;;;;5091212;28;20184;-62
2021/06/30 01:38:44;;;;;;;19.73;17.77;;;20.30;99.90;;;;;;5090617;28;20381;-62
2021/06/30 01:41:11;;;;;;;20.60;18.50;;;20.30;99.90;;;;;;5071760;28;20180;-64
2021/06/30 01:43:37;;;;;;;20.80;18.90;;;20.30;99.90;;;;;;5073710;28;20177;-65
2021/06/30 01:46:02;;;;;;;22.90;20.50;;;20.30;99.90;;;;;;5092773;28;20691;-65
2021/06/30 01:48:28;;;;;;;22.87;20.67;;;20.40;99.90;;;;;;5085287;28;20540;-65
2021/06/30 01:50:54;;;;;;;23.93;21.53;;;20.40;99.90;;;;;;5092378;28;20187;-65
2021/06/30 01:53:20;;;;;;;25.03;22.63;;;20.40;99.90;;;;;;5092553;28;20458;-65
2021/06/30 01:55:46;;;;;;;23.43;21.03;;;20.40;99.90;;;;;;5091102;28;20181;-65
2021/06/30 01:58:14;;;;;;;24.67;22.17;;;20.40;99.90;;;;;;5092074;28;20180;-65
2021/06/30 02:00:40;;;;;;;24.37;21.90;;;20.40;99.90;;;;;;5091108;28;20210;-64
2021/06/30 02:03:05;;;;;;;26.07;23.33;;;20.40;99.90;;;;;;5092114;28;20173;-65
2021/06/30 02:05:31;;;;;;;26.53;24.03;;;20.30;99.90;;;;;;5091593;28;20231;-65
2021/06/30 02:07:59;;;;;;;24.80;22.37;;;20.40;99.90;;;;;;5091356;28;20180;-65
2021/06/30 02:10:25;;;;;;;26.77;23.67;;;20.30;99.90;;;;;;5087787;28;20220;-65
2021/06/30 02:12:51;;;;;;;27.50;24.80;;;20.40;99.90;;;;;;5089860;28;20207;-64
2021/06/30 02:15:31;;;;;;;27.33;24.60;;;20.40;99.90;;;;;;5091372;28;20648;-65
2021/06/30 02:17:58;;;;;;;26.60;23.93;;;20.40;99.90;;;;;;5090615;28;20569;-65
2021/06/30 02:20:25;;;;;;;27.00;24.40;;;20.40;99.90;;;;;;5070418;28;20205;-66
2021/06/30 02:22:51;;;;;;;28.87;26.07;;;20.40;99.90;;;;;;5089149;28;20196;-65
2021/06/30 02:25:25;;;;;;;29.43;26.40;;;20.40;99.90;;;;;;5090521;28;20268;-66
2021/06/30 02:27:51;;;;;;;29.50;26.40;;;20.40;99.90;;;;;;5089430;28;20180;-65
2021/06/30 02:30:29;;;;;;;28.77;25.87;;;20.40;99.90;;;;;;5069930;28;20220;-65
2021/06/30 02:33:00;;;;;;;28.97;26.03;;;20.40;99.90;;;;;;5089711;28;20180;-66
2021/06/30 02:35:30;;;;;;;29.30;26.40;;;20.40;99.90;;;;;;5091651;28;20181;-66
2021/06/30 02:37:57;;;;;;;29.77;26.57;;;20.40;99.90;;;;;;5090767;28;20536;-65
2021/06/30 02:40:25;;;;;;;29.50;26.30;;;20.30;99.90;;;;;;5073022;28;20200;-66
2021/06/30 02:42:51;;;;;;;30.43;27.57;;;20.30;99.90;;;;;;5090584;28;20241;-65
2021/06/30 02:45:19;;;;;;;32.53;29.07;;;20.30;99.90;;;;;;5091398;28;20321;-65
2021/06/30 02:47:47;;;;;;;33.27;29.97;;;20.30;99.90;;;;;;5090769;28;20493;-65
2021/06/30 02:50:19;;;;;;;32.50;29.10;;;20.30;99.90;;;;;;5083357;28;20192;-64
2021/06/30 02:52:50;;;;;;;33.67;30.00;;;20.30;99.90;;;;;;5090684;28;20564;-65
2021/06/30 02:55:16;;;;;;;36.47;32.87;;;20.30;99.90;;;;;;5083342;28;20175;-64
2021/06/30 02:57:43;;;;;;;35.33;31.27;;;20.30;99.90;;;;;;5089754;28;20702;-65
2021/06/30 03:00:15;;;;;;;36.07;32.37;;;20.30;99.90;;;;;;5090072;28;20224;-64
2021/06/30 03:02:40;;;;;;;37.20;32.63;;;20.30;99.90;;;;;;5091057;28;20513;-65
2021/06/30 03:05:07;;;;;;;39.37;33.57;;;20.30;99.90;;;;;;5089977;28;20200;-66
2021/06/30 03:07:33;;;;;;;36.60;32.80;;;20.30;99.90;;;;;;5090452;28;20204;-65
2021/06/30 03:09:59;;;;;;;35.20;31.30;;;20.20;99.90;;;;;;5088806;28;20228;-64
2021/06/30 03:12:24;;;;;;;40.07;33.00;;;20.20;99.90;;;;;;5090610;28;20180;-65
2021/06/30 03:14:50;;;;;;;39.07;33.60;;;20.10;99.90;;;;;;5090920;28;20207;-64
2021/06/30 03:17:15;;;;;;;37.37;32.93;;;20.10;99.90;;;;;;5090978;28;20259;-64
2021/06/30 03:19:41;;;;;;;38.73;33.73;;;20.10;99.90;;;;;;5090538;28;20258;-67
2021/06/30 03:22:07;;;;;;;36.10;32.13;;;20.20;99.90;;;;;;5087163;28;20173;-65
2021/06/30 03:24:32;;;;;;;43.80;34.53;;;20.20;99.90;;;;;;5090317;28;20215;-65
2021/06/30 03:26:59;;;;;;;39.27;34.27;;;20.10;99.90;;;;;;5088702;28;20211;-64
2021/06/30 03:29:24;;;;;;;45.83;36.67;;;20.10;99.90;;;;;;5090075;28;20232;-64
2021/06/30 03:31:50;;;;;;;44.07;36.63;;;20.20;99.90;;;;;;5081302;28;20268;-65
2021/06/30 03:34:15;;;;;;;41.10;35.33;;;20.10;99.90;;;;;;5081562;28;20188;-64
2021/06/30 03:36:41;;;;;;;42.93;36.53;;;20.10;99.90;;;;;;5090918;28;20184;-65
2021/06/30 03:39:07;;;;;;;43.53;35.47;;;20.10;99.90;;;;;;5090184;28;20200;-65
2021/06/30 03:41:32;;;;;;;39.17;34.97;;;20.10;99.90;;;;;;5090214;28;20632;-65
2021/06/30 03:43:58;;;;;;;43.17;34.23;;;20.20;99.90;;;;;;5089934;28;20218;-64
2021/06/30 03:46:23;;;;;;;34.07;30.47;;;20.20;99.90;;;;;;5088580;28;20280;-65
2021/06/30 03:48:48;;;;;;;33.47;29.97;;;20.30;99.90;;;;;;5089755;28;20188;-65
2021/06/30 03:51:14;;;;;;;35.20;31.50;;;20.30;99.90;;;;;;5088629;28;20652;-65
2021/06/30 03:53:40;;;;;;;29.90;26.83;;;20.30;99.90;;;;;;5090437;28;20647;-64
2021/06/30 03:56:05;;;;;;;29.17;26.27;;;20.30;99.90;;;;;;5088772;28;20173;-65
2021/06/30 03:58:31;;;;;;;30.13;27.13;;;20.40;99.90;;;;;;5088854;28;20204;-65
2021/06/30 04:00:57;;;;;;;26.43;23.97;;;20.40;99.90;;;;;;5090304;28;20176;-65
2021/06/30 04:03:23;;;;;;;24.23;21.87;;;20.50;99.90;;;;;;5081731;28;20262;-65
2021/06/30 04:05:49;;;;;;;22.57;20.30;;;20.50;99.90;;;;;;5089655;28;20231;-66
2021/06/30 04:08:14;;;;;;;21.33;19.37;;;20.60;99.90;;;;;;5088893;28;20177;-65
2021/06/30 04:10:40;;;;;;;20.27;18.37;;;21.00;99.90;;;;;;5089215;28;20172;-65
2021/06/30 04:13:08;;;;;;;21.60;19.60;;;21.00;99.90;;;;;;5089233;28;20176;-66
2021/06/30 04:15:33;;;;;;;22.10;20.10;;;21.10;99.90;;;;;;5089724;28;20181;-65
2021/06/30 04:18:02;;;;;;;24.27;21.77;;;21.00;99.90;;;;;;5089628;28;20641;-65
2021/06/30 04:20:27;;;;;;;24.87;22.47;;;20.90;99.90;;;;;;5088252;28;20476;-66
2021/06/30 04:22:53;;;;;;;28.33;24.83;;;20.90;99.90;;;;;;5089727;28;20207;-65
2021/06/30 04:25:18;;;;;;;27.97;25.27;;;21.00;99.90;;;;;;5088501;28;20204;-65
2021/06/30 04:27:44;;;;;;;30.20;27.00;;;20.90;99.90;;;;;;5089492;28;20172;-65
2021/06/30 04:30:10;;;;;;;29.07;25.33;;;20.80;99.90;;;;;;5089804;28;20264;-66
2021/06/30 04:32:37;;;;;;;30.23;27.03;;;20.80;99.90;;;;;;5088561;28;20216;-65
2021/06/30 04:35:04;;;;;;;30.47;27.47;;;20.80;99.90;;;;;;5089099;28;20263;-65
2021/06/30 04:37:29;;;;;;;26.97;24.27;;;20.80;99.90;;;;;;5090368;28;20208;-66
2021/06/30 04:39:55;;;;;;;29.00;26.00;;;20.80;99.90;;;;;;5095842;28;20695;-65
2021/06/30 04:42:20;;;;;;;27.50;24.67;;;20.80;99.90;;;;;;5094385;28;20187;-65
2021/06/30 04:44:46;;;;;;;26.37;23.67;;;20.80;99.90;;;;;;5095597;28;20204;-65
2021/06/30 04:47:11;;;;;;;26.73;23.83;;;20.80;99.90;;;;;;5096317;28;20184;-65
2021/06/30 04:49:37;;;;;;;23.33;21.30;;;20.90;99.90;;;;;;5094832;28;20215;-66
2021/06/30 04:52:03;;;;;;;21.67;19.57;;;20.80;99.90;;;;;;5095549;28;20168;-66
2021/06/30 04:54:29;;;;;;;22.40;20.00;;;20.80;99.90;;;;;;5094868;28;20586;-65
2021/06/30 04:56:54;;;;;;;20.43;18.63;;;21.00;99.90;;;;;;5095865;28;20206;-65
2021/06/30 04:59:21;;;;;;;20.03;18.13;;;21.20;99.90;;;;;;5095484;28;20212;-65
2021/06/30 05:01:47;;;;;;;19.73;17.73;;;21.30;99.90;;;;;;5093890;28;20728;-65
2021/06/30 05:04:12;;;;;;;18.10;16.40;;;21.60;99.90;;;;;;5096142;28;20183;-66
2021/06/30 05:06:38;;;;;;;18.57;16.77;;;21.70;99.90;;;;;;5095494;28;20211;-64
2021/06/30 05:09:04;;;;;;;18.60;16.80;;;21.90;99.90;;;;;;5095499;28;20261;-65
2021/06/30 05:11:31;;;;;;;16.67;15.17;;;22.10;99.90;;;;;;5094676;28;20655;-63
2021/06/30 05:13:56;;;;;;;17.23;15.60;;;22.20;99.90;;;;;;5095785;28;20261;-64
2021/06/30 05:16:24;;;;;;;15.17;13.13;;;22.30;99.90;;;;;;5095232;28;20272;-64
2021/06/30 05:18:50;;;;;;;13.97;12.53;;;22.40;99.90;;;;;;5094764;28;20209;-64
2021/06/30 05:21:16;;;;;;;16.90;15.13;;;22.50;99.90;;;;;;5095313;28;20649;-64
2021/06/30 05:23:41;;;;;;;15.20;13.83;;;22.60;99.90;;;;;;5094493;28;20225;-64
2021/06/30 05:26:07;;;;;;;12.90;11.73;;;22.90;99.90;;;;;;5095906;28;20980;-64
2021/06/30 05:28:32;;;;;;;14.05;12.68;;;23.10;99.90;;;;;;5076409;28;20226;-64
2021/06/30 05:31:00;;;;;;;15.30;12.03;;;23.10;99.90;;;;;;5095037;28;20180;-64
2021/06/30 05:33:25;;;;;;;12.10;11.10;;;23.20;99.90;;;;;;5077562;28;20206;-65
2021/06/30 05:35:51;;;;;;;11.80;10.60;;;23.10;99.90;;;;;;5094357;28;20182;-66
2021/06/30 05:38:16;;;;;;;11.23;10.00;;;23.10;99.90;;;;;;5095113;28;20782;-65
2021/06/30 05:40:42;;;;;;;10.93;9.97;;;22.90;99.90;;;;;;5094578;28;20250;-66
2021/06/30 05:43:08;;;;;;;14.07;11.43;;;22.90;99.90;;;;;;5095125;28;20186;-65
2021/06/30 05:45:33;;;;;;;10.88;9.82;;;22.90;99.90;;;;;;5094768;28;20201;-65
2021/06/30 05:47:58;;;;;;;12.30;11.00;;;23.00;99.90;;;;;;5076995;28;20174;-65
2021/06/30 05:50:24;;;;;;;22.70;20.57;;;22.90;99.90;;;;;;5073623;28;20574;-65
2021/06/30 05:52:50;;;;;;;12.87;10.87;;;22.90;99.90;;;;;;5072287;28;20181;-66
2021/06/30 05:55:15;;;;;;;10.57;9.13;;;23.00;99.90;;;;;;5092331;28;20642;-66
2021/06/30 05:57:41;;;;;;;10.07;8.97;;;22.90;99.90;;;;;;5091091;28;20181;-65
2021/06/30 06:00:13;;;;;;;9.87;8.93;;;22.90;99.90;;;;;;5117949;22;20709;-61
2021/06/30 06:02:39;;;;;;;10.53;9.53;;;22.90;99.90;;;;;;5105961;28;20174;-62
2021/06/30 06:05:05;;;;;;;9.60;8.67;;;22.90;99.90;;;;;;5111567;28;20207;-62
2021/06/30 06:07:31;;;;;;;9.43;8.50;;;23.20;99.90;;;;;;5112432;28;20177;-62
2021/06/30 06:09:58;;;;;;;12.20;8.88;;;23.40;99.90;;;;;;5100234;28;20212;-61
2021/06/30 06:12:24;;;;;;;9.80;8.80;;;23.30;99.90;;;;;;5091331;28;20653;-61
2021/06/30 06:14:49;;;;;;;8.18;7.32;;;23.40;99.90;;;;;;5090905;28;20178;-62
2021/06/30 06:17:15;;;;;;;10.00;8.35;;;23.30;99.90;;;;;;5092129;28;20178;-61
2021/06/30 06:19:40;;;;;;;8.23;7.47;;;23.40;99.90;;;;;;5092016;28;20603;-61
2021/06/30 06:22:06;;;;;;;8.68;7.78;;;23.40;99.90;;;;;;5090394;28;20258;-61
2021/06/30 06:24:34;;;;;;;8.35;7.50;;;23.30;99.90;;;;;;5091551;28;20256;-62
2021/06/30 06:27:01;;;;;;;7.47;6.78;;;23.40;99.90;;;;;;5089460;28;20296;-62
2021/06/30 06:29:27;;;;;;;8.38;6.60;;;23.50;99.90;;;;;;5091428;28;20212;-61
2021/06/30 06:31:53;;;;;;;7.68;6.97;;;23.50;99.90;;;;;;5089840;28;20563;-62
2021/06/30 06:34:22;;;;;;;7.60;6.88;;;23.40;99.90;;;;;;5084296;28;20184;-62
2021/06/30 06:36:49;;;;;;;7.70;6.95;;;23.40;99.90;;;;;;5090709;28;20410;-62
2021/06/30 06:39:16;;;;;;;7.63;6.93;;;23.20;99.90;;;;;;5083229;28;20206;-62
2021/06/30 06:41:42;;;;;;;8.48;7.68;;;23.20;99.90;;;;;;5090650;28;20566;-62
2021/06/30 06:44:08;;;;;;;7.63;6.95;;;23.20;99.90;;;;;;5089807;28;20207;-62
2021/06/30 06:46:34;;;;;;;7.00;6.40;;;23.30;99.90;;;;;;5090930;28;20255;-62
2021/06/30 06:49:00;;;;;;;8.32;6.85;;;23.10;99.90;;;;;;5090124;28;20198;-62
2021/06/30 06:51:26;;;;;;;7.13;6.53;;;23.00;99.90;;;;;;5090628;28;20220;-62
2021/06/30 06:53:52;;;;;;;8.27;7.13;;;23.10;99.90;;;;;;5091122;28;20178;-61
2021/06/30 06:56:25;;;;;;;7.40;6.70;;;23.20;99.90;;;;;;5090948;28;20197;-62
2021/06/30 06:58:50;;;;;;;7.53;6.82;;;23.20;99.90;;;;;;5090708;28;20192;-62
2021/06/30 07:01:16;;;;;;;7.38;6.60;;;23.30;99.90;;;;;;5088550;28;20390;-62
2021/06/30 07:03:41;;;;;;;11.05;7.00;;;23.50;99.90;;;;;;5091128;28;20207;-61
2021/06/30 07:06:07;;;;;;;7.00;6.30;;;23.50;99.90;;;;;;5088144;28;20213;-61
2021/06/30 07:08:34;;;;;;;9.85;6.70;;;23.80;99.90;;;;;;5080551;28;20644;-61
2021/06/30 07:11:00;;;;;;;7.05;6.35;;;23.80;99.90;;;;;;5071094;28;20194;-61
2021/06/30 07:13:25;;;;;;;6.13;5.63;;;23.70;99.90;;;;;;5082759;28;20181;-62
2021/06/30 07:15:51;;;;;;;5.60;5.20;;;23.80;99.90;;;;;;5087163;28;20182;-61
2021/06/30 07:18:17;;;;;;;6.63;5.95;;;23.90;99.90;;;;;;5088819;28;20560;-62
2021/06/30 07:20:43;;;;;;;6.00;5.50;;;24.10;99.90;;;;;;5090047;28;20202;-62
2021/06/30 07:23:10;;;;;;;8.18;7.47;;;24.30;99.90;;;;;;5089380;28;20188;-62
2021/06/30 07:25:36;;;;;;;7.40;5.93;;;24.20;99.90;;;;;;5088790;28;20358;-62
2021/06/30 07:28:02;;;;;;;5.63;5.13;;;24.10;99.90;;;;;;5089846;28;20177;-62
2021/06/30 07:30:28;;;;;;;5.32;4.93;;;23.80;99.90;;;;;;5089307;28;20229;-63
2021/06/30 07:32:53;;;;;;;8.10;5.90;;;23.60;99.90;;;;;;5089433;28;20176;-75
2021/06/30 07:35:19;;;;;;;6.30;5.53;;;23.50;99.90;;;;;;5090011;28;20178;-76
2021/06/30 07:37:44;;;;;;;6.30;5.75;;;23.50;99.90;;;;;;5090579;28;20178;-77
2021/06/30 07:40:11;;;;;;;7.53;5.53;;;23.60;99.90;;;;;;5089716;28;20206;-76
2021/06/30 07:42:37;;;;;;;6.53;5.93;;;23.60;99.90;;;;;;5090504;28;20248;-76
2021/06/30 07:45:04;;;;;;;6.45;5.75;;;23.40;99.90;;;;;;5090941;28;20646;-76
2021/06/30 07:47:30;;;;;;;5.78;5.28;;;23.40;99.90;;;;;;5072879;28;20189;-77
2021/06/30 07:49:56;;;;;;;6.97;5.68;;;23.20;99.90;;;;;;5103148;28;20238;-77
2021/06/30 07:52:22;;;;;;;9.20;5.55;;;23.10;99.90;;;;;;5111987;28;20174;-77
2021/06/30 07:54:48;;;;;;;5.97;5.47;;;23.20;99.90;;;;;;5108372;28;20189;-77
2021/06/30 07:57:13;;;;;;;6.95;5.63;;;23.10;99.90;;;;;;5114206;28;20234;-77
2021/06/30 07:59:39;;;;;;;6.30;5.57;;;23.10;99.90;;;;;;5115252;28;20225;-77
2021/06/30 08:02:04;;;;;;;6.75;5.90;;;23.10;99.90;;;;;;5113429;28;20181;-77
2021/06/30 08:04:30;;;;;;;6.95;6.15;;;23.20;99.90;;;;;;5103897;28;20193;-74
2021/06/30 08:06:56;;;;;;;6.10;5.32;;;23.50;99.90;;;;;;5108160;28;20206;-76
2021/06/30 08:09:22;;;;;;;6.13;5.63;;;23.80;99.90;;;;;;5091214;28;20253;-75
2021/06/30 08:11:47;;;;;;;6.40;5.10;;;24.10;99.90;;;;;;5090547;28;20175;-77
2021/06/30 08:14:13;;;;;;;5.65;5.00;;;24.20;99.90;;;;;;5090774;28;20194;-75
2021/06/30 08:16:39;;;;;;;5.65;5.13;;;24.10;99.90;;;;;;5090497;28;20239;-76
2021/06/30 08:19:04;;;;;;;5.82;4.80;;;24.40;99.90;;;;;;5090372;28;20195;-77
2021/06/30 08:21:30;;;;;;;7.40;6.70;;;24.60;99.90;;;;;;5090213;28;20673;-77
2021/06/30 08:23:55;;;;;;;6.85;6.15;;;24.80;99.90;;;;;;5090099;28;20709;-76
2021/06/30 08:26:21;;;;;;;7.05;6.35;;;24.80;99.90;;;;;;5090306;28;20207;-77
2021/06/30 08:28:47;;;;;;;8.65;6.85;;;25.00;99.90;;;;;;5090346;28;20175;-77
2021/06/30 08:31:13;;;;;;;7.25;5.75;;;24.70;99.90;;;;;;5088919;28;20195;-77
2021/06/30 08:33:39;;;;;;;7.20;6.32;;;24.40;99.90;;;;;;5088603;28;20239;-77
2021/06/30 08:36:05;;;;;;;7.72;6.22;;;24.50;99.90;;;;;;5090226;28;20198;-77
2021/06/30 08:38:31;;;;;;;7.63;6.88;;;24.60;99.90;;;;;;5089260;28;20197;-77
2021/06/30 08:40:58;;;;;;;7.30;6.20;;;24.60;99.90;;;;;;5090953;28;20194;-77
2021/06/30 08:43:24;;;;;;;6.95;6.25;;;24.80;99.90;;;;;;5099074;28;20690;-77
2021/06/30 08:45:50;;;;;;;6.10;5.50;;;24.70;99.90;;;;;;5093289;28;20203;-77
2021/06/30 08:48:16;;;;;;;6.90;6.30;;;24.80;99.90;;;;;;5090064;28;20539;-75
2021/06/30 08:50:46;;;;;;;7.30;6.60;;;25.00;99.90;;;;;;5070780;28;20640;-76
2021/06/30 08:53:13;;;;;;;7.53;6.55;;;24.90;99.90;;;;;;5090277;28;20233;-76
2021/06/30 08:55:45;;;;;;;8.90;7.32;;;24.90;99.90;;;;;;5089554;28;20188;-76
2021/06/30 08:58:12;;;;;;;8.00;6.50;;;24.80;99.90;;;;;;5090329;28;20191;-77
2021/06/30 09:00:41;;;;;;;7.07;6.45;;;24.70;99.90;;;;;;5081818;28;20311;-76
2021/06/30 09:03:12;;;;;;;6.88;6.28;;;24.30;99.90;;;;;;5091522;28;20239;-76
2021/06/30 09:08:36;;;;;;;6.28;5.60;;;24.30;99.90;;;;;;5115609;28;20186;-76
2021/06/30 09:11:10;;;;;;;6.70;6.03;;;24.30;99.90;;;;;;5115345;28;20195;-76
2021/06/30 09:13:35;;;;;;;6.63;6.03;;;24.00;99.90;;;;;;5114148;28;20181;-76
2021/06/30 09:16:02;;;;;;;6.10;5.60;;;23.90;99.90;;;;;;5113377;28;20190;-75
2021/06/30 09:18:36;;;;;;;5.88;5.28;;;23.90;99.90;;;;;;5098370;28;20272;-76
2021/06/30 09:21:25;;;;;;;5.80;5.20;;;23.80;99.90;;;;;;5083659;28;20182;-75
2021/06/30 09:24:19;;;;;;;7.40;5.22;;;23.80;99.90;;;;;;5090448;28;20192;-76
2021/06/30 09:26:54;;;;;;;6.03;5.00;;;23.70;99.90;;;;;;5094033;28;20211;-76
2021/06/30 09:29:22;;;;;;;5.20;4.70;;;23.50;99.90;;;;;;5088810;28;20570;-76
2021/06/30 09:31:53;;;;;;;6.90;5.28;;;23.50;99.90;;;;;;5091141;28;20591;-76
2021/06/30 09:34:21;;;;;;;9.05;6.30;;;23.50;99.90;;;;;;5093932;28;20173;-76
2021/06/30 09:37:02;;;;;;;5.13;4.65;;;23.40;99.90;;;;;;5074834;28;20185;-76
2021/06/30 09:39:28;;;;;;;5.97;4.82;;;23.30;99.90;;;;;;5094175;28;20201;-76
2021/06/30 09:42:06;;;;;;;6.82;4.90;;;23.20;99.90;;;;;;5092951;28;20194;-76
2021/06/30 09:44:32;;;;;;;5.40;4.90;;;23.10;99.90;;;;;;5094043;28;20662;-76
2021/06/30 09:46:59;;;;;;;6.95;5.97;;;23.30;99.90;;;;;;5093186;28;20254;-77
2021/06/30 09:49:26;;;;;;;6.10;5.00;;;23.50;99.90;;;;;;5072695;28;20221;-76
2021/06/30 09:52:09;;;;;;;6.05;5.38;;;23.30;99.90;;;;;;5092008;28;20187;-76
2021/06/30 09:54:35;;;;;;;5.50;5.00;;;23.20;99.90;;;;;;5088406;28;20182;-76
2021/06/30 09:57:07;;;;;;;5.72;5.18;;;23.40;99.90;;;;;;5092339;28;20646;-77
2021/06/30 09:59:36;;;;;;;6.43;5.78;;;23.50;99.90;;;;;;5093526;28;20753;-77
2021/06/30 10:02:07;;;;;;;7.50;5.95;;;23.50;99.90;;;;;;5092019;28;20186;-76
2021/06/30 10:04:41;;;;;;;6.88;6.18;;;23.70;99.90;;;;;;5094869;28;20184;-76
2021/06/30 10:07:11;;;;;;;10.48;6.35;;;23.80;99.90;;;;;;5096018;28;20700;-76
2021/06/30 10:09:39;;;;;;;8.93;6.95;;;24.00;99.90;;;;;;5095192;28;20194;-76
2021/06/30 10:12:10;;;;;;;6.88;5.90;;;24.10;99.90;;;;;;5075213;28;20547;-76
2021/06/30 10:14:38;;;;;;;7.22;6.32;;;24.20;99.90;;;;;;5096399;28;20626;-75
2021/06/30 10:17:06;;;;;;;7.50;6.57;;;24.40;99.90;;;;;;5094761;28;20678;-77
2021/06/30 10:19:32;;;;;;;6.72;6.03;;;24.50;99.90;;;;;;5086118;28;20210;-77
2021/06/30 10:21:57;;;;;;;6.38;5.75;;;24.70;99.90;;;;;;5084286;28;20183;-77
2021/06/30 10:24:23;;;;;;;7.68;6.20;;;24.90;99.90;;;;;;5093954;28;20699;-77
2021/06/30 10:26:50;;;;;;;6.78;6.07;;;25.10;99.90;;;;;;5093958;28;20204;-77
2021/06/30 10:29:17;;;;;;;7.05;6.35;;;25.10;99.90;;;;;;5077458;28;20200;-77
2021/06/30 10:31:45;;;;;;;7.28;5.97;;;25.20;99.90;;;;;;5093558;28;20172;-76
2021/06/30 10:34:13;;;;;;;7.30;6.60;;;25.10;99.90;;;;;;5093302;28;20203;-77
2021/06/30 10:37:01;;;;;;;10.57;6.07;;;25.10;99.90;;;;;;5092864;28;20180;-76
2021/06/30 10:39:36;;;;;;;7.32;5.70;;;25.10;99.90;;;;;;5092579;28;20208;-77
2021/06/30 10:42:42;;;;;;;6.05;5.45;;;24.80;99.90;;;;;;5092252;28;20182;-76
2021/06/30 10:45:17;;;;;;;6.00;5.50;;;24.90;99.90;;;;;;5066860;28;20180;-77
2021/06/30 10:47:48;;;;;;;6.50;5.60;;;24.80;99.90;;;;;;5094079;28;20655;-77
2021/06/30 10:50:16;;;;;;;7.38;6.25;;;24.70;99.90;;;;;;5098266;28;20196;-77
2021/06/30 10:52:43;;;;;;;7.03;6.38;;;25.10;99.90;;;;;;5102848;28;20579;-77
2021/06/30 10:55:36;;;;;;;8.25;6.53;;;25.20;99.90;;;;;;5098041;28;20284;-77
2021/06/30 10:58:10;;;;;;;8.00;6.20;;;25.40;99.90;;;;;;5100321;28;20172;-77
2021/06/30 11:01:05;;;;;;;7.47;6.32;;;25.20;99.90;;;;;;5091477;28;20207;-77
2021/06/30 11:03:33;;;;;;;8.25;6.10;;;25.50;99.90;;;;;;5087516;28;20682;-77
2021/06/30 11:06:17;;;;;;;11.10;6.72;;;25.40;99.90;;;;;;5093885;28;20237;-77
2021/06/30 11:08:45;;;;;;;8.60;6.65;;;25.40;99.90;;;;;;5085708;28;20179;-77
2021/06/30 11:11:19;;;;;;;7.88;5.68;;;25.40;99.90;;;;;;5090951;28;20691;-77
2021/06/30 11:13:54;;;;;;;6.50;5.85;;;25.60;99.90;;;;;;5092144;28;20168;-77
2021/06/30 11:16:45;;;;;;;7.80;5.93;;;25.90;99.90;;;;;;5091195;28;20180;-75
2021/06/30 11:19:19;;;;;;;6.70;6.00;;;26.10;99.90;;;;;;5101497;28;20344;-74
2021/06/30 11:21:46;;;;;;;6.75;5.57;;;26.00;99.90;;;;;;5075153;28;20171;-76
2021/06/30 11:24:38;;;;;;;7.55;6.32;;;26.00;99.90;;;;;;5091910;28;20187;-77
2021/06/30 11:27:13;;;;;;;7.88;7.07;;;26.70;99.90;;;;;;5088361;28;20214;-77
2021/06/30 11:29:53;;;;;;;8.43;6.10;;;26.80;99.90;;;;;;5091551;28;20199;-76
2021/06/30 11:32:36;;;;;;;7.15;6.50;;;26.80;99.90;;;;;;5091774;28;20183;-76
2021/06/30 11:35:23;;;;;;;6.68;6.07;;;27.10;99.90;;;;;;5092696;28;20174;-76
2021/06/30 11:38:13;;;;;;;7.03;5.50;;;26.50;99.90;;;;;;5068209;28;20188;-77
2021/06/30 11:40:51;;;;;;;5.97;5.38;;;25.90;99.90;;;;;;5092131;28;20200;-76
2021/06/30 11:43:21;;;;;;;6.95;6.00;;;25.80;99.90;;;;;;5108083;28;20172;-76
2021/06/30 11:45:47;;;;;;;7.85;6.32;;;25.90;99.90;;;;;;5110805;28;20193;-76
2021/06/30 11:48:14;;;;;;;6.68;5.88;;;25.70;99.90;;;;;;5102709;28;20171;-75
2021/06/30 11:50:44;;;;;;;6.35;5.70;;;25.60;99.90;;;;;;5114739;28;20256;-76
2021/06/30 11:53:09;;;;;;;7.63;5.95;;;25.40;99.90;;;;;;5114872;28;20168;-76
2021/06/30 11:55:39;;;;;;;6.72;5.82;;;25.40;99.90;;;;;;5108123;28;20211;-77
2021/06/30 11:58:05;;;;;;;8.05;5.80;;;25.40;99.90;;;;;;5107037;28;20199;-80
2021/06/30 12:00:32;;;;;;;6.75;5.78;;;25.30;99.90;;;;;;5126403;22;20223;-71
2021/06/30 12:03:00;;;;;;;9.40;6.40;;;25.40;99.90;;;;;;5110347;28;20609;-69
2021/06/30 12:05:32;;;;;;;7.03;6.35;;;25.50;99.90;;;;;;5108940;28;20213;-70
2021/06/30 12:07:58;;;;;;;6.53;5.30;;;25.30;99.90;;;;;;5110090;28;20647;-70
2021/06/30 12:10:26;;;;;;;7.68;5.97;;;25.30;99.90;;;;;;5097186;28;20204;-69
2021/06/30 12:12:52;;;;;;;6.40;5.78;;;25.00;99.90;;;;;;5089347;28;20183;-69
2021/06/30 12:15:19;;;;;;;6.53;5.85;;;24.90;99.90;;;;;;5090692;28;20191;-69
2021/06/30 12:17:53;;;;;;;7.35;6.00;;;24.90;99.90;;;;;;5088517;28;20179;-70
2021/06/30 12:20:22;;;;;;;8.25;5.82;;;24.80;99.90;;;;;;5089505;28;20207;-69
2021/06/30 12:22:48;;;;;;;6.93;5.80;;;24.50;99.90;;;;;;5089572;28;20183;-68
2021/06/30 12:25:16;;;;;;;6.32;5.55;;;24.30;99.90;;;;;;5093372;28;20218;-70
2021/06/30 12:27:47;;;;;;;9.88;6.15;;;24.20;99.90;;;;;;5089570;28;20183;-69
2021/06/30 12:30:21;;;;;;;7.60;6.50;;;24.10;99.90;;;;;;5072481;28;20248;-69
2021/06/30 12:32:58;;;;;;;7.72;6.40;;;24.10;99.90;;;;;;5089761;28;20188;-69
2021/06/30 12:35:29;;;;;;;9.93;5.75;;;24.00;99.90;;;;;;5089536;28;20185;-71
2021/06/30 12:38:09;;;;;;;7.00;6.30;;;23.90;99.90;;;;;;5069400;28;20230;-70
2021/06/30 12:40:36;;;;;;;7.80;6.32;;;23.70;99.90;;;;;;5091059;28;20559;-71
2021/06/30 12:43:20;;;;;;;9.02;6.18;;;23.60;99.90;;;;;;5085594;28;20183;-69
2021/06/30 12:45:51;;;;;;;7.90;5.95;;;23.70;99.90;;;;;;5062414;28;20209;-69